sensor_id;sensor_type;location;lat;lon;timestamp;pressure;altitude;pressure_sealevel;temperature;humidity
16431;BME280;8325;49.284;7.238;2023-05-15T04:03:38;98391.41;;;11.07;100.00
16431;BME280;8325;49.284;7.238;2023-05-15T04:07:50;98394.91;;;11.14;100.00
16431;BME280;8325;49.284;7.238;2023-05-15T04:12:02;98388.69;;;11.15;100.00
16431;BME280;8325;49.284;7.238;2023-05-15T04:16:13;98393.91;;;11.15;100.00
16431;BME280;8325;49.284;7.238;2023-05-15T04:20:25;98386.53;;;11.19;100.00
16431;BME280;8325;49.284;7.238;2023-05-15T04:24:37;98384.34;;;11.22;100.00
16431;BME280;8325;49.284;7.238;2023-05-15T04:28:48;98380.72;;;11.23;100.00
16431;BME280;8325;49.284;7.238;2023-05-15T04:33:14;98382.00;;;11.27;100.00
16431;BME280;8325;49.284;7.238;2023-05-15T04:37:26;98383.25;;;11.32;100.00
16431;BME280;8325;49.284;7.238;2023-05-15T04:41:37;98390.09;;;11.33;100.00
16431;BME280;8325;49.284;7.238;2023-05-15T04:45:49;98392.63;;;11.41;100.00
16431;BME280;8325;49.284;7.238;2023-05-15T04:50:01;98400.38;;;11.49;100.00
16431;BME280;8325;49.284;7.238;2023-05-15T04:54:13;98408.00;;;11.65;100.00
16431;BME280;8325;49.284;7.238;2023-05-15T04:58:24;98394.19;;;11.71;100.00
16431;BME280;8325;49.284;7.238;2023-05-15T05:02:40;98398.84;;;11.91;100.00
16431;BME280;8325;49.284;7.238;2023-05-15T05:06:53;98396.16;;;12.06;98.73
16431;BME280;8325;49.284;7.238;2023-05-15T05:11:04;98399.22;;;12.31;98.27
16431;BME280;8325;49.284;7.238;2023-05-15T05:15:16;98405.81;;;12.48;98.48
16431;BME280;8325;49.284;7.238;2023-05-15T05:19:27;98409.34;;;12.62;96.77
16431;BME280;8325;49.284;7.238;2023-05-15T05:23:39;98397.09;;;12.69;95.78
16431;BME280;8325;49.284;7.238;2023-05-15T05:27:51;98400.84;;;12.88;94.54
16431;BME280;8325;49.284;7.238;2023-05-15T05:32:02;98396.06;;;12.98;93.39
16431;BME280;8325;49.284;7.238;2023-05-15T05:36:14;98396.28;;;13.31;93.04
16431;BME280;8325;49.284;7.238;2023-05-15T05:40:26;98395.47;;;16.84;75.93
16431;BME280;8325;49.284;7.238;2023-05-15T05:44:37;98383.28;;;20.37;61.55
16431;BME280;8325;49.284;7.238;2023-05-15T05:48:49;98373.28;;;23.37;50.10
16431;BME280;8325;49.284;7.238;2023-05-15T05:53:00;98379.88;;;24.43;46.19
16431;BME280;8325;49.284;7.238;2023-05-15T05:57:12;98379.31;;;26.70;39.79
16431;BME280;8325;49.284;7.238;2023-05-15T06:01:24;98381.31;;;27.07;38.40
16431;BME280;8325;49.284;7.238;2023-05-15T06:05:37;98381.00;;;27.95;36.24
16431;BME280;8325;49.284;7.238;2023-05-15T06:09:48;98379.19;;;28.75;35.27
16431;BME280;8325;49.284;7.238;2023-05-15T06:14:00;98382.56;;;28.34;35.13
16431;BME280;8325;49.284;7.238;2023-05-15T06:18:12;98381.28;;;28.91;34.49
16431;BME280;8325;49.284;7.238;2023-05-15T06:22:24;98392.75;;;29.11;33.45
16431;BME280;8325;49.284;7.238;2023-05-15T06:26:35;98384.78;;;29.33;33.08
16431;BME280;8325;49.284;7.238;2023-05-15T06:30:47;98383.50;;;27.29;36.36
16431;BME280;8325;49.284;7.238;2023-05-15T06:34:59;98392.78;;;26.26;38.10
16431;BME280;8325;49.284;7.238;2023-05-15T06:39:11;98386.78;;;26.73;37.50
16431;BME280;8325;49.284;7.238;2023-05-15T06:43:22;98389.94;;;23.75;42.75
16431;BME280;8325;49.284;7.238;2023-05-15T06:47:34;98404.75;;;22.92;45.31
16431;BME280;8325;49.284;7.238;2023-05-15T06:51:45;98393.84;;;21.43;48.61
16431;BME280;8325;49.284;7.238;2023-05-15T06:55:57;98396.00;;;20.85;51.73
16431;BME280;8325;49.284;7.238;2023-05-15T07:00:09;98396.13;;;20.57;53.49
16431;BME280;8325;49.284;7.238;2023-05-15T07:04:21;98395.84;;;20.41;54.81
16431;BME280;8325;49.284;7.238;2023-05-15T07:08:33;98400.56;;;20.39;54.01
16431;BME280;8325;49.284;7.238;2023-05-15T07:12:44;98394.91;;;20.02;55.28
16431;BME280;8325;49.284;7.238;2023-05-15T07:16:56;98403.44;;;19.64;55.63
16431;BME280;8325;49.284;7.238;2023-05-15T07:21:08;98409.47;;;19.19;56.62
16431;BME280;8325;49.284;7.238;2023-05-15T07:25:19;98399.00;;;19.00;56.88
16431;BME280;8325;49.284;7.238;2023-05-15T07:29:31;98395.41;;;18.71;58.26
16431;BME280;8325;49.284;7.238;2023-05-15T07:33:42;98399.53;;;19.78;55.56
16431;BME280;8325;49.284;7.238;2023-05-15T07:37:54;98400.19;;;20.48;52.39
16431;BME280;8325;49.284;7.238;2023-05-15T07:42:05;98398.72;;;20.90;52.59
16431;BME280;8325;49.284;7.238;2023-05-15T07:46:17;98395.91;;;20.80;51.98
16431;BME280;8325;49.284;7.238;2023-05-15T07:50:28;98395.59;;;20.26;51.37
16431;BME280;8325;49.284;7.238;2023-05-15T07:54:40;98389.91;;;20.68;49.94
16431;BME280;8325;49.284;7.238;2023-05-15T07:58:52;98384.09;;;21.10;49.22
16431;BME280;8325;49.284;7.238;2023-05-15T08:03:04;98384.59;;;21.07;47.21
16431;BME280;8325;49.284;7.238;2023-05-15T08:07:16;98388.38;;;20.38;48.05
16431;BME280;8325;49.284;7.238;2023-05-15T08:11:27;98385.28;;;20.97;49.39
16431;BME280;8325;49.284;7.238;2023-05-15T08:15:39;98388.03;;;20.68;48.96
16431;BME280;8325;49.284;7.238;2023-05-15T08:19:51;98388.19;;;19.83;49.88
16431;BME280;8325;49.284;7.238;2023-05-15T08:24:03;98394.25;;;19.14;51.57
16431;BME280;8325;49.284;7.238;2023-05-15T08:28:14;98385.03;;;19.97;52.32
16431;BME280;8325;49.284;7.238;2023-05-15T08:32:26;98389.72;;;20.24;52.11
16431;BME280;8325;49.284;7.238;2023-05-15T08:36:38;98386.03;;;20.59;51.81
16431;BME280;8325;49.284;7.238;2023-05-15T08:40:51;98380.66;;;20.20;52.03
16431;BME280;8325;49.284;7.238;2023-05-15T08:45:06;98381.56;;;19.97;52.70
16431;BME280;8325;49.284;7.238;2023-05-15T08:53:52;98366.97;;;20.79;50.66
16431;BME280;8325;49.284;7.238;2023-05-15T08:58:05;98365.44;;;20.49;48.83
16431;BME280;8325;49.284;7.238;2023-05-15T09:02:17;98362.81;;;20.32;51.31
16431;BME280;8325;49.284;7.238;2023-05-15T09:06:31;98352.59;;;20.58;52.97
16431;BME280;8325;49.284;7.238;2023-05-15T09:10:44;98348.97;;;20.30;50.91
16431;BME280;8325;49.284;7.238;2023-05-15T09:19:21;98348.41;;;18.85;52.80
16431;BME280;8325;49.284;7.238;2023-05-15T09:23:33;98344.81;;;18.91;52.77
16431;BME280;8325;49.284;7.238;2023-05-15T09:27:44;98343.19;;;19.02;53.54
16431;BME280;8325;49.284;7.238;2023-05-15T09:31:56;98348.94;;;18.87;54.10
16431;BME280;8325;49.284;7.238;2023-05-15T09:36:08;98348.03;;;18.93;55.75
16431;BME280;8325;49.284;7.238;2023-05-15T09:40:20;98346.09;;;18.77;59.00
16431;BME280;8325;49.284;7.238;2023-05-15T09:44:31;98344.50;;;18.76;58.17
16431;BME280;8325;49.284;7.238;2023-05-15T09:48:44;98344.13;;;18.96;57.25
16431;BME280;8325;49.284;7.238;2023-05-15T09:52:57;98345.81;;;19.14;55.96
16431;BME280;8325;49.284;7.238;2023-05-15T09:57:11;98343.41;;;19.52;54.96
16431;BME280;8325;49.284;7.238;2023-05-15T10:01:24;98379.25;;;20.00;54.15
16431;BME280;8325;49.284;7.238;2023-05-15T10:05:37;98407.50;;;19.02;53.38
16431;BME280;8325;49.284;7.238;2023-05-15T10:09:54;98436.53;;;17.71;60.27
16431;BME280;8325;49.284;7.238;2023-05-15T10:14:11;98442.31;;;16.31;67.94
16431;BME280;8325;49.284;7.238;2023-05-15T10:18:23;98431.63;;;15.30;74.32
16431;BME280;8325;49.284;7.238;2023-05-15T10:22:39;98412.53;;;15.48;84.47
16431;BME280;8325;49.284;7.238;2023-05-15T10:26:53;98412.88;;;15.13;86.59
16431;BME280;8325;49.284;7.238;2023-05-15T10:31:06;98398.09;;;15.12;84.54
16431;BME280;8325;49.284;7.238;2023-05-15T10:35:18;98389.94;;;15.27;86.30
16431;BME280;8325;49.284;7.238;2023-05-15T10:39:29;98391.94;;;15.38;88.43
16431;BME280;8325;49.284;7.238;2023-05-15T10:43:41;98393.28;;;15.54;91.97
16431;BME280;8325;49.284;7.238;2023-05-15T10:47:53;98394.81;;;15.23;83.59
16431;BME280;8325;49.284;7.238;2023-05-15T10:52:05;98382.78;;;14.82;91.47
16431;BME280;8325;49.284;7.238;2023-05-15T10:56:19;98387.97;;;15.02;94.14
16431;BME280;8325;49.284;7.238;2023-05-15T11:00:31;98381.91;;;15.02;93.55
16431;BME280;8325;49.284;7.238;2023-05-15T11:04:43;98361.69;;;15.09;94.39
16431;BME280;8325;49.284;7.238;2023-05-15T11:18:16;98347.13;;;15.58;95.05
16431;BME280;8325;49.284;7.238;2023-05-15T11:22:32;98348.00;;;15.83;94.66
16431;BME280;8325;49.284;7.238;2023-05-15T11:26:51;98346.25;;;16.02;92.20
16431;BME280;8325;49.284;7.238;2023-05-15T11:31:05;98337.13;;;16.30;89.29
16431;BME280;8325;49.284;7.238;2023-05-15T11:39:37;98336.63;;;16.83;91.10
16431;BME280;8325;49.284;7.238;2023-05-15T11:43:49;98323.06;;;16.98;86.53
16431;BME280;8325;49.284;7.238;2023-05-15T11:48:05;98332.03;;;16.97;89.41
16431;BME280;8325;49.284;7.238;2023-05-15T11:52:18;98328.25;;;17.23;87.05
16431;BME280;8325;49.284;7.238;2023-05-15T11:56:30;98316.72;;;17.36;86.33
16431;BME280;8325;49.284;7.238;2023-05-15T12:00:43;98309.09;;;17.46;85.90
16431;BME280;8325;49.284;7.238;2023-05-15T12:04:54;98305.41;;;17.47;85.93
16431;BME280;8325;49.284;7.238;2023-05-15T12:09:15;98307.66;;;17.62;87.45
16431;BME280;8325;49.284;7.238;2023-05-15T12:13:30;98311.69;;;17.64;86.05
16431;BME280;8325;49.284;7.238;2023-05-15T12:17:44;98308.00;;;17.65;82.30
16431;BME280;8325;49.284;7.238;2023-05-15T12:21:56;98307.09;;;18.02;83.61
16431;BME280;8325;49.284;7.238;2023-05-15T12:26:07;98302.84;;;18.12;83.58
16431;BME280;8325;49.284;7.238;2023-05-15T12:30:19;98302.94;;;18.06;82.82
16431;BME280;8325;49.284;7.238;2023-05-15T12:34:31;98299.03;;;18.08;81.91
16431;BME280;8325;49.284;7.238;2023-05-15T12:38:43;98301.53;;;17.91;80.66
16431;BME280;8325;49.284;7.238;2023-05-15T12:42:55;98294.09;;;18.47;80.28
16431;BME280;8325;49.284;7.238;2023-05-15T12:47:07;98293.03;;;18.72;74.76
16431;BME280;8325;49.284;7.238;2023-05-15T12:51:21;98297.91;;;18.75;78.20
16431;BME280;8325;49.284;7.238;2023-05-15T12:55:34;98283.25;;;18.96;78.65
16431;BME280;8325;49.284;7.238;2023-05-15T12:59:46;98282.19;;;19.37;77.36
16431;BME280;8325;49.284;7.238;2023-05-15T13:03:57;98289.78;;;19.62;77.59
16431;BME280;8325;49.284;7.238;2023-05-15T13:08:14;98288.00;;;19.96;76.84
16431;BME280;8325;49.284;7.238;2023-05-15T13:12:26;98301.69;;;19.76;76.29
16431;BME280;8325;49.284;7.238;2023-05-15T13:16:38;98329.63;;;18.86;70.77
16431;BME280;8325;49.284;7.238;2023-05-15T13:20:54;98337.75;;;17.72;62.91
16431;BME280;8325;49.284;7.238;2023-05-15T13:25:05;98355.19;;;16.95;65.68
16431;BME280;8325;49.284;7.238;2023-05-15T13:29:18;98372.53;;;16.59;67.44
16431;BME280;8325;49.284;7.238;2023-05-15T13:33:30;98387.72;;;16.39;72.96
16431;BME280;8325;49.284;7.238;2023-05-15T13:37:42;98404.03;;;15.97;75.28
16431;BME280;8325;49.284;7.238;2023-05-15T13:41:53;98407.25;;;15.61;74.90
16431;BME280;8325;49.284;7.238;2023-05-15T13:46:05;98409.97;;;15.34;81.45
16431;BME280;8325;49.284;7.238;2023-05-15T13:50:16;98413.31;;;14.90;83.34
16431;BME280;8325;49.284;7.238;2023-05-15T13:54:28;98404.44;;;14.58;88.92
16431;BME280;8325;49.284;7.238;2023-05-15T13:58:40;98396.72;;;14.49;88.30
16431;BME280;8325;49.284;7.238;2023-05-15T14:02:52;98402.19;;;14.41;88.65
16431;BME280;8325;49.284;7.238;2023-05-15T14:07:04;98392.88;;;14.19;91.75
16431;BME280;8325;49.284;7.238;2023-05-15T14:11:15;98394.28;;;13.95;97.46
16431;BME280;8325;49.284;7.238;2023-05-15T14:15:27;98380.28;;;13.81;100.00
16431;BME280;8325;49.284;7.238;2023-05-15T14:19:38;98378.22;;;13.56;100.00
16431;BME280;8325;49.284;7.238;2023-05-15T14:23:50;98365.78;;;13.92;100.00
16431;BME280;8325;49.284;7.238;2023-05-15T14:28:01;98351.97;;;13.63;100.00
16431;BME280;8325;49.284;7.238;2023-05-15T14:32:13;98351.78;;;13.65;100.00
16431;BME280;8325;49.284;7.238;2023-05-15T14:36:25;98342.50;;;13.55;100.00
16431;BME280;8325;49.284;7.238;2023-05-15T14:40:36;98331.84;;;13.97;100.00
16431;BME280;8325;49.284;7.238;2023-05-15T14:44:48;98331.88;;;14.17;100.00
16431;BME280;8325;49.284;7.238;2023-05-15T14:49:00;98330.84;;;14.44;100.00
16431;BME280;8325;49.284;7.238;2023-05-15T14:53:11;98330.66;;;14.66;100.00
16431;BME280;8325;49.284;7.238;2023-05-15T14:57:23;98321.34;;;14.63;100.00
16431;BME280;8325;49.284;7.238;2023-05-15T15:01:34;98328.22;;;14.18;100.00
16431;BME280;8325;49.284;7.238;2023-05-15T15:05:46;98333.66;;;13.96;100.00
16431;BME280;8325;49.284;7.238;2023-05-15T15:09:58;98329.03;;;14.05;100.00
16431;BME280;8325;49.284;7.238;2023-05-15T15:14:09;98322.38;;;14.02;100.00
16431;BME280;8325;49.284;7.238;2023-05-15T15:18:21;98331.84;;;14.03;100.00
16431;BME280;8325;49.284;7.238;2023-05-15T15:22:34;98327.81;;;14.34;100.00
16431;BME280;8325;49.284;7.238;2023-05-15T15:26:46;98324.38;;;14.40;100.00
16431;BME280;8325;49.284;7.238;2023-05-15T15:30:57;98323.78;;;14.38;100.00
16431;BME280;8325;49.284;7.238;2023-05-15T15:35:09;98326.81;;;14.28;100.00
16431;BME280;8325;49.284;7.238;2023-05-15T15:39:21;98332.66;;;14.24;100.00
16431;BME280;8325;49.284;7.238;2023-05-15T15:43:32;98329.84;;;14.25;100.00
16431;BME280;8325;49.284;7.238;2023-05-15T15:47:44;98329.44;;;14.09;100.00
16431;BME280;8325;49.284;7.238;2023-05-15T15:51:56;98327.81;;;14.21;100.00
16431;BME280;8325;49.284;7.238;2023-05-15T15:56:07;98334.47;;;14.37;100.00
16431;BME280;8325;49.284;7.238;2023-05-15T16:00:19;98349.25;;;14.44;100.00
16431;BME280;8325;49.284;7.238;2023-05-15T16:04:30;98351.66;;;14.39;100.00
16431;BME280;8325;49.284;7.238;2023-05-15T16:08:42;98352.88;;;14.43;100.00
16431;BME280;8325;49.284;7.238;2023-05-15T16:12:53;98352.69;;;14.52;100.00
16431;BME280;8325;49.284;7.238;2023-05-15T16:17:05;98356.34;;;14.57;100.00
16431;BME280;8325;49.284;7.238;2023-05-15T16:21:17;98352.50;;;14.60;100.00
16431;BME280;8325;49.284;7.238;2023-05-15T16:25:29;98349.84;;;14.53;100.00
16431;BME280;8325;49.284;7.238;2023-05-15T16:29:40;98341.53;;;14.49;100.00
16431;BME280;8325;49.284;7.238;2023-05-15T16:33:52;98344.81;;;14.52;100.00
16431;BME280;8325;49.284;7.238;2023-05-15T16:38:04;98342.19;;;14.52;100.00
16431;BME280;8325;49.284;7.238;2023-05-15T16:42:16;98340.34;;;14.59;100.00
16431;BME280;8325;49.284;7.238;2023-05-15T16:46:27;98345.63;;;14.32;100.00
16431;BME280;8325;49.284;7.238;2023-05-15T16:50:39;98341.97;;;14.40;100.00
16431;BME280;8325;49.284;7.238;2023-05-15T16:54:51;98349.03;;;14.53;100.00
16431;BME280;8325;49.284;7.238;2023-05-15T16:59:02;98343.59;;;14.61;100.00
16431;BME280;8325;49.284;7.238;2023-05-15T17:03:14;98348.03;;;14.67;100.00
16431;BME280;8325;49.284;7.238;2023-05-15T17:07:27;98340.75;;;14.69;100.00
16431;BME280;8325;49.284;7.238;2023-05-15T17:11:39;98347.22;;;14.66;100.00
16431;BME280;8325;49.284;7.238;2023-05-15T17:15:51;98344.56;;;14.73;100.00
16431;BME280;8325;49.284;7.238;2023-05-15T17:20:04;98341.91;;;14.86;100.00
16431;BME280;8325;49.284;7.238;2023-05-15T17:24:16;98343.53;;;14.94;100.00
16431;BME280;8325;49.284;7.238;2023-05-15T17:28:27;98338.22;;;15.01;100.00
16431;BME280;8325;49.284;7.238;2023-05-15T17:32:39;98342.44;;;15.08;100.00
16431;BME280;8325;49.284;7.238;2023-05-15T17:36:50;98348.69;;;15.14;100.00
16431;BME280;8325;49.284;7.238;2023-05-15T17:41:02;98347.09;;;15.13;100.00
16431;BME280;8325;49.284;7.238;2023-05-15T17:45:14;98356.81;;;15.12;100.00
16431;BME280;8325;49.284;7.238;2023-05-15T17:49:25;98356.44;;;15.09;100.00
16431;BME280;8325;49.284;7.238;2023-05-15T17:53:37;98357.44;;;15.08;100.00
16431;BME280;8325;49.284;7.238;2023-05-15T17:57:48;98358.66;;;15.12;100.00
16431;BME280;8325;49.284;7.238;2023-05-15T18:02:00;98361.69;;;15.09;100.00
16431;BME280;8325;49.284;7.238;2023-05-15T18:06:13;98366.56;;;14.99;100.00
16431;BME280;8325;49.284;7.238;2023-05-15T18:10:24;98372.28;;;14.69;97.57
16431;BME280;8325;49.284;7.238;2023-05-15T18:14:36;98379.59;;;14.54;99.22
16431;BME280;8325;49.284;7.238;2023-05-15T18:18:50;98378.75;;;14.40;100.00
16431;BME280;8325;49.284;7.238;2023-05-15T18:23:02;98392.47;;;14.22;96.21
16431;BME280;8325;49.284;7.238;2023-05-15T18:27:14;98394.09;;;14.16;100.00
16431;BME280;8325;49.284;7.238;2023-05-15T18:31:25;98392.47;;;14.09;100.00
16431;BME280;8325;49.284;7.238;2023-05-15T18:35:38;98402.34;;;13.93;100.00
16431;BME280;8325;49.284;7.238;2023-05-15T18:39:49;98413.00;;;13.85;100.00
16431;BME280;8325;49.284;7.238;2023-05-15T18:44:02;98409.34;;;13.73;100.00
16431;BME280;8325;49.284;7.238;2023-05-15T18:48:14;98428.44;;;13.47;100.00
16431;BME280;8325;49.284;7.238;2023-05-15T18:52:25;98423.97;;;13.41;100.00
16431;BME280;8325;49.284;7.238;2023-05-15T18:56:37;98430.56;;;13.30;100.00
16431;BME280;8325;49.284;7.238;2023-05-15T19:00:50;98427.47;;;13.20;100.00
16431;BME280;8325;49.284;7.238;2023-05-15T19:05:02;98430.84;;;13.13;100.00
16431;BME280;8325;49.284;7.238;2023-05-15T19:09:14;98436.34;;;13.19;100.00
16431;BME280;8325;49.284;7.238;2023-05-15T19:13:25;98448.66;;;13.18;100.00
16431;BME280;8325;49.284;7.238;2023-05-15T19:17:40;98451.28;;;13.18;100.00
16431;BME280;8325;49.284;7.238;2023-05-15T19:21:51;98467.19;;;13.17;100.00
16431;BME280;8325;49.284;7.238;2023-05-15T19:26:03;98473.56;;;13.07;100.00
16431;BME280;8325;49.284;7.238;2023-05-15T19:30:15;98484.97;;;13.21;100.00
16431;BME280;8325;49.284;7.238;2023-05-15T19:34:26;98489.84;;;13.24;100.00
16431;BME280;8325;49.284;7.238;2023-05-15T19:38:38;98487.78;;;13.20;100.00
16431;BME280;8325;49.284;7.238;2023-05-15T19:42:50;98492.31;;;13.32;100.00
16431;BME280;8325;49.284;7.238;2023-05-15T19:47:01;98496.41;;;13.42;100.00
16431;BME280;8325;49.284;7.238;2023-05-15T19:51:13;98497.22;;;13.42;100.00
16431;BME280;8325;49.284;7.238;2023-05-15T19:55:25;98503.88;;;13.38;100.00
16431;BME280;8325;49.284;7.238;2023-05-15T19:59:37;98498.28;;;13.20;100.00
16431;BME280;8325;49.284;7.238;2023-05-15T20:03:49;98503.03;;;13.31;100.00
16431;BME280;8325;49.284;7.238;2023-05-15T20:08:00;98506.22;;;13.26;100.00
16431;BME280;8325;49.284;7.238;2023-05-15T20:12:12;98519.38;;;13.33;100.00
16431;BME280;8325;49.284;7.238;2023-05-15T20:16:23;98533.91;;;13.35;100.00
16431;BME280;8325;49.284;7.238;2023-05-15T20:20:35;98546.47;;;13.40;100.00
16431;BME280;8325;49.284;7.238;2023-05-15T20:24:46;98546.69;;;13.45;100.00
16431;BME280;8325;49.284;7.238;2023-05-15T20:28:58;98553.84;;;13.30;100.00
16431;BME280;8325;49.284;7.238;2023-05-15T20:33:10;98553.25;;;13.06;100.00
16431;BME280;8325;49.284;7.238;2023-05-15T20:37:21;98544.53;;;12.99;100.00
16431;BME280;8325;49.284;7.238;2023-05-15T20:41:37;98528.66;;;12.86;100.00
16431;BME280;8325;49.284;7.238;2023-05-15T20:45:49;98542.31;;;12.75;100.00
16431;BME280;8325;49.284;7.238;2023-05-15T20:50:01;98559.81;;;12.53;100.00
16431;BME280;8325;49.284;7.238;2023-05-15T20:54:12;98556.38;;;12.16;100.00
16431;BME280;8325;49.284;7.238;2023-05-15T20:58:24;98551.56;;;11.98;100.00
16431;BME280;8325;49.284;7.238;2023-05-15T21:02:35;98556.56;;;12.14;100.00
16431;BME280;8325;49.284;7.238;2023-05-15T21:06:47;98553.53;;;11.96;100.00
16431;BME280;8325;49.284;7.238;2023-05-15T21:10:59;98558.25;;;11.86;100.00
16431;BME280;8325;49.284;7.238;2023-05-15T21:15:10;98562.00;;;11.68;100.00
16431;BME280;8325;49.284;7.238;2023-05-15T21:19:22;98559.22;;;11.70;100.00
16431;BME280;8325;49.284;7.238;2023-05-15T21:23:34;98564.09;;;11.58;100.00
16431;BME280;8325;49.284;7.238;2023-05-15T21:27:46;98571.75;;;11.74;100.00
